»·PEaware :: FSLCD KSNA-KCRQ

FSLCD :: KSNA-KCRQ

FLIGHT INFORMATION

Flight Status: Arrived
Operator: Unknown
More flights by this operator :: More flights under this callsign
Pilot: Gopalakrishna Pillai Sulekha S. (22834)
Aircraft: ROBIN DR-400
(DR40)
More flights by this aircraft type
Origin: KSNA John Wayne-Orange Co
United States
Destination: KCRQ McClellan-Palomar
United States
More flights between these airports :: More routes between these airports
Route: +V23 OCN
File this flight plan on PilotEdge
Remarks: I2 RATING
Altitude:
(Current/Filed)
5,000ft
Speed:
(Current/Filed)
120kts
Departed: 06-Feb-19 08:33 AM
Arrived: 06-Feb-19 09:19 AM
Distance/Time
Traveled:
44nm/0:46
Distance/Time
To Go:
Arrived

Flight Plot

Page will automatically refresh every two minutes.


Map Options




Map Legend


Flown Route
Filed Route
Departure Airport
Arrival Airport
Navaid (VOR, NDB)
Fix

Horizontal Profiles

Position Reports

Time Latitude Longitude Heading Altitude Ground
Speed
06-Feb-19 08:17 33.666717 -117.871868 316 52ft 0kts
06-Feb-19 08:18 33.666717 -117.871868 316 52ft 0kts
06-Feb-19 08:19 33.666717 -117.871868 316 52ft 0kts
06-Feb-19 08:20 33.666717 -117.871868 316 52ft 0kts
06-Feb-19 08:21 33.666717 -117.871868 316 52ft 0kts
06-Feb-19 08:22 33.666717 -117.871868 316 52ft 0kts
06-Feb-19 08:23 33.666717 -117.871868 316 52ft 0kts
06-Feb-19 08:24 33.666717 -117.871868 316 52ft 0kts
06-Feb-19 08:25 33.667989 -117.871928 25 52ft 15kts
06-Feb-19 08:26 33.671218 -117.868823 38 49ft 3kts
06-Feb-19 08:27 33.673524 -117.867008 352 46ft 16kts
06-Feb-19 08:28 33.677624 -117.864897 27 40ft 21kts
06-Feb-19 08:29 33.679961 -117.863640 307 39ft 0kts
06-Feb-19 08:30 33.679961 -117.863640 307 39ft 0kts
06-Feb-19 08:31 33.679752 -117.864399 207 39ft 29kts
06-Feb-19 08:32 33.656551 -117.872670 186 957ft 105kts
06-Feb-19 08:33 33.626769 -117.876853 186 2062ft 110kts
06-Feb-19 08:34 33.596355 -117.881121 186 3165ft 111kts
06-Feb-19 08:35 33.566564 -117.885314 186 4259ft 102kts
06-Feb-19 08:36 33.538673 -117.889245 186 5000ft 113kts
06-Feb-19 08:37 33.507791 -117.893554 186 4998ft 108kts
06-Feb-19 08:38 33.478209 -117.897675 186 4999ft 106kts
06-Feb-19 08:39 33.452647 -117.890701 102 5000ft 103kts
06-Feb-19 08:40 33.446882 -117.857127 101 4999ft 102kts
06-Feb-19 08:41 33.441173 -117.823667 101 4999ft 102kts
06-Feb-19 08:42 33.435451 -117.790113 101 4999ft 102kts
06-Feb-19 08:43 33.429738 -117.756586 101 4999ft 102kts
06-Feb-19 08:44 33.424046 -117.723161 101 4999ft 102kts
06-Feb-19 08:45 33.418350 -117.689687 101 4999ft 102kts
06-Feb-19 08:46 33.412644 -117.656132 101 4999ft 102kts
06-Feb-19 08:47 33.403929 -117.624203 132 4999ft 102kts
06-Feb-19 08:48 33.384414 -117.599103 132 4999ft 102kts
06-Feb-19 08:49 33.367497 -117.577356 132 4999ft 102kts
06-Feb-19 08:50 33.345551 -117.549144 132 4999ft 102kts
06-Feb-19 08:51 33.326168 -117.524222 132 4999ft 102kts
06-Feb-19 08:52 33.306909 -117.499458 132 4997ft 97kts
06-Feb-19 08:53 33.288995 -117.476417 132 4999ft 93kts
06-Feb-19 08:54 33.271375 -117.453751 132 4999ft 93kts
06-Feb-19 08:55 33.267384 -117.424162 91 4999ft 93kts
06-Feb-19 08:56 33.266514 -117.392402 91 5000ft 97kts
06-Feb-19 08:57 33.265629 -117.359948 91 4999ft 97kts
06-Feb-19 08:58 33.264747 -117.327498 91 4999ft 97kts
06-Feb-19 08:59 33.263872 -117.295156 91 4999ft 97kts
06-Feb-19 09:00 33.262995 -117.262612 91 4999ft 97kts
06-Feb-19 09:01 33.262125 -117.230188 91 5000ft 99kts
06-Feb-19 09:02 33.261210 -117.196079 91 5000ft 104kts
06-Feb-19 09:03 33.260283 -117.161317 91 4999ft 104kts
06-Feb-19 09:04 33.259364 -117.126721 91 4997ft 99kts
06-Feb-19 09:05 33.258524 -117.094824 91 5000ft 96kts
06-Feb-19 09:06 33.257274 -117.062851 109 4997ft 96kts
06-Feb-19 09:07 33.234455 -117.044933 151 4121ft 95kts
06-Feb-19 09:08 33.212633 -117.030852 151 3500ft 83kts
06-Feb-19 09:09 33.192561 -117.022398 211 3495ft 73kts
06-Feb-19 09:10 33.175363 -117.040461 221 3498ft 84kts
06-Feb-19 09:11 33.165138 -117.063677 251 3504ft 82kts
06-Feb-19 09:12 33.158554 -117.093740 257 3440ft 104kts
06-Feb-19 09:14 33.152771 -117.128080 258 2894ft 103kts
06-Feb-19 09:15 33.147374 -117.161558 259 2318ft 103kts
06-Feb-19 09:16 33.141975 -117.195093 259 1724ft 102kts
06-Feb-19 09:17 33.136883 -117.226678 259 1157ft 84kts
06-Feb-19 09:18 33.132573 -117.253344 258 701ft 79kts
06-Feb-19 09:19 33.128873 -117.276371 258 308ft 21kts
06-Feb-19 09:20 33.127698 -117.279754 228 308ft 0kts
06-Feb-19 09:21 33.127698 -117.279754 228 308ft 0kts
06-Feb-19 09:22 33.127875 -117.277268 79 308ft 16kts
06-Feb-19 09:23 33.127653 -117.276397 83 307ft 0kts

Navigation Log

Ident Type
Flight plan parsing failed, navigation log unavailable